Time;durP1;ratioP1;P1;durP2;ratioP2;P2;SDS_P1;SDS_P2;PMS_P1;PMS_P2;Temp;Humidity;BMP_temperature;BMP_pressure;BME280_temperature;BME280_humidity;BME280_pressure;Samples;Min_cycle;Max_cycle;Signal;HPM_P1;HPM_P2
2023/06/28 00:01:18;;;;;;;9.15;2.00;;;16.10;99.90;;;15.05;78.33;100862.31;4934920;28;20023;-73
2023/06/28 00:03:47;;;;;;;9.68;2.40;;;16.10;99.90;;;15.03;78.34;100858.91;4947114;28;20039;-72
2023/06/28 00:06:13;;;;;;;9.38;1.90;;;16.00;99.90;;;15.01;78.42;100855.50;4941688;28;20027;-72
2023/06/28 00:08:40;;;;;;;14.82;2.30;;;16.00;99.90;;;15.04;78.33;100855.34;4939864;28;20500;-71
2023/06/28 00:11:08;;;;;;;11.68;2.00;;;16.00;99.90;;;15.03;78.43;100867.75;4927106;28;20436;-71
2023/06/28 00:13:34;;;;;;;11.80;2.10;;;16.00;99.90;;;15.00;78.75;100864.44;4931868;28;20471;-73
2023/06/28 00:16:00;;;;;;;9.35;2.05;;;16.00;99.90;;;15.00;78.62;100864.44;4933326;28;20475;-73
2023/06/28 00:18:27;;;;;;;9.90;1.70;;;16.00;99.90;;;14.96;78.81;100864.59;4923673;28;20044;-73
2023/06/28 00:20:53;;;;;;;12.70;2.25;;;16.00;99.90;;;14.93;78.83;100870.13;4939970;28;20030;-73
2023/06/28 00:23:19;;;;;;;11.27;2.30;;;16.00;99.90;;;14.91;78.68;100860.56;4942067;28;20043;-72
2023/06/28 00:25:45;;;;;;;12.80;2.30;;;15.90;99.90;;;14.87;78.55;100854.59;4941857;28;20619;-73
2023/06/28 00:28:10;;;;;;;13.18;2.03;;;15.90;99.90;;;14.84;78.64;100857.44;4943649;28;20055;-72
2023/06/28 00:30:37;;;;;;;10.98;1.42;;;15.90;99.90;;;14.76;78.60;100851.75;4932129;28;20039;-72
2023/06/28 00:33:03;;;;;;;12.90;1.80;;;15.80;99.90;;;14.78;78.46;100852.53;4935202;28;20023;-72
2023/06/28 00:35:28;;;;;;;10.98;1.80;;;15.80;99.90;;;14.80;78.80;100852.44;4952018;28;20038;-73
2023/06/28 00:37:55;;;;;;;7.05;1.20;;;15.80;99.90;;;14.75;78.58;100860.63;4935089;28;20416;-73
2023/06/28 00:40:21;;;;;;;9.63;1.67;;;15.80;99.90;;;14.75;78.55;100860.63;4939279;28;20043;-72
2023/06/28 00:42:46;;;;;;;10.45;1.70;;;15.80;99.90;;;14.72;78.33;100858.19;4923231;28;20027;-72
2023/06/28 00:45:13;;;;;;;;;;;15.80;99.90;;;14.66;78.04;100862.06;4942516;28;20066;-71
2023/06/28 00:47:41;;;;;;;9.87;1.93;;;15.80;99.90;;;14.68;77.92;100869.94;4935039;28;19926;-73
2023/06/28 00:50:08;;;;;;;12.18;1.83;;;15.70;99.90;;;14.68;77.79;100867.28;4931625;28;20038;-72
2023/06/28 00:52:34;;;;;;;12.30;1.88;;;15.70;99.90;;;14.66;77.79;100867.38;4923927;28;20492;-72
2023/06/28 00:55:00;;;;;;;7.65;1.23;;;15.70;99.90;;;14.64;77.26;100863.94;4940191;28;20755;-73
2023/06/28 00:57:27;;;;;;;8.07;1.35;;;15.70;99.90;;;14.67;77.45;100868.25;4944498;28;21482;-73
2023/06/28 00:59:55;;;;;;;7.72;1.42;;;15.70;99.90;;;14.71;77.38;100869.75;4943460;28;20047;-72
2023/06/28 01:02:21;;;;;;;9.70;1.38;;;15.70;99.90;;;14.68;77.07;100870.78;4931258;28;20114;-72
2023/06/28 01:04:49;;;;;;;10.20;1.52;;;15.80;99.90;;;14.66;77.11;100861.22;4939724;28;20463;-71
2023/06/28 01:07:16;;;;;;;9.95;1.50;;;15.70;99.90;;;14.69;76.88;100858.41;4944680;28;20405;-72
2023/06/28 01:09:42;;;;;;;11.88;1.95;;;15.70;99.90;;;14.68;77.16;100859.31;4943037;28;20050;-72
2023/06/28 01:12:09;;;;;;;9.65;1.77;;;15.70;99.90;;;14.65;77.39;100870.13;4933777;28;20082;-72
2023/06/28 01:14:35;;;;;;;12.27;1.98;;;15.70;99.90;;;14.64;77.38;100871.91;4905186;28;20023;-72
2023/06/28 01:17:00;;;;;;;8.32;1.50;;;15.70;99.90;;;14.59;77.16;100873.16;4915447;28;20788;-72
2023/06/28 01:19:29;;;;;;;9.30;1.88;;;15.70;99.90;;;14.60;77.57;100880.13;4937869;28;20716;-73
2023/06/28 01:22:00;;;;;;;8.55;1.27;;;15.70;99.90;;;14.50;77.66;100874.53;4934436;28;20739;-72
2023/06/28 01:24:26;;;;;;;9.02;1.52;;;15.60;99.90;;;14.45;77.84;100874.81;4916589;28;20505;-71
2023/06/28 01:26:53;;;;;;;6.38;1.23;;;15.60;99.90;;;14.41;78.30;100867.16;4922681;28;20031;-72
2023/06/28 01:29:21;;;;;;;9.77;1.83;;;15.50;99.90;;;14.38;78.43;100872.63;4939491;28;20054;-73
2023/06/28 01:31:55;;;;;;;8.57;1.25;;;15.50;99.90;;;14.33;78.48;100872.88;4932702;28;20034;-72
2023/06/28 01:34:26;;;;;;;12.32;1.58;;;15.50;99.90;;;14.39;78.74;100869.88;4934997;28;20093;-72
2023/06/28 01:36:54;;;;;;;8.05;1.38;;;15.50;99.90;;;14.40;79.06;100873.38;4941205;28;20031;-72
2023/06/28 01:39:22;;;;;;;9.95;1.70;;;15.50;99.90;;;14.34;79.17;100871.94;4932503;28;20090;-73
2023/06/28 01:41:49;;;;;;;11.75;1.83;;;15.40;99.90;;;14.32;79.21;100868.56;4927825;28;20054;-73
2023/06/28 01:44:15;;;;;;;7.75;1.42;;;15.40;99.90;;;14.31;79.58;100861.53;4942560;28;20047;-71
2023/06/28 01:46:41;;;;;;;14.82;2.42;;;15.40;99.90;;;14.31;79.47;100869.47;4932898;28;20031;-72
2023/06/28 01:49:07;;;;;;;10.27;1.35;;;15.40;99.90;;;14.25;79.64;100872.50;4942221;28;20043;-72
2023/06/28 01:51:34;;;;;;;6.70;1.35;;;15.40;99.90;;;14.21;79.84;100873.63;4931546;28;20054;-72
2023/06/28 01:54:02;;;;;;;10.88;1.92;;;15.30;99.90;;;14.22;79.68;100870.88;4912889;28;20050;-73
2023/06/28 01:56:28;;;;;;;9.45;1.30;;;15.30;99.90;;;14.19;80.20;100868.44;4941424;28;20035;-73
2023/06/28 01:58:54;;;;;;;6.20;1.27;;;15.30;99.90;;;14.18;80.30;100879.09;4940210;28;20031;-72
2023/06/28 02:01:20;;;;;;;10.45;2.45;;;15.30;99.90;;;14.21;80.32;100876.25;4933780;28;20113;-72
2023/06/28 02:03:46;;;;;;;11.30;1.42;;;15.30;99.90;;;14.20;80.53;100874.56;4942241;28;20071;-72
2023/06/28 02:06:14;;;;;;;12.60;1.80;;;15.30;99.90;;;14.20;80.90;100879.88;4943413;28;20385;-73
2023/06/28 02:08:39;;;;;;;16.45;2.00;;;15.30;99.90;;;14.25;80.63;100877.78;4945220;28;20061;-73
2023/06/28 02:11:05;;;;;;;12.30;2.00;;;15.30;99.90;;;14.21;81.29;100874.50;4935918;28;20484;-72
2023/06/28 02:13:31;;;;;;;15.07;2.35;;;15.20;99.90;;;14.22;81.21;100864.75;4933646;28;20050;-72
2023/06/28 02:15:58;;;;;;;10.25;1.80;;;15.30;99.90;;;14.27;81.32;100870.59;4936035;28;20074;-72
2023/06/28 02:18:27;;;;;;;15.70;2.05;;;15.40;99.90;;;14.30;81.00;100873.09;4931598;28;20031;-72
2023/06/28 02:20:52;;;;;;;11.65;2.15;;;15.40;99.90;;;14.32;81.08;100880.00;4945956;28;20038;-72
2023/06/28 02:23:22;;;;;;;13.25;2.05;;;15.40;99.90;;;14.35;80.73;100890.41;4927185;28;20039;-72
2023/06/28 02:25:48;;;;;;;6.30;1.65;;;15.40;99.90;;;14.36;80.76;100883.28;4942349;28;20066;-73
2023/06/28 02:28:14;;;;;;;9.60;1.50;;;15.40;99.90;;;14.36;80.52;100880.63;4934402;28;20062;-72
2023/06/28 02:30:39;;;;;;;;;;;15.40;99.90;;;14.33;81.24;100886.13;4942430;28;20031;-72
2023/06/28 02:33:08;;;;;;;8.75;1.73;;;15.40;99.90;;;14.34;81.01;100887.81;4948176;28;19930;-72
2023/06/28 02:35:33;;;;;;;11.00;2.28;;;15.40;99.90;;;14.41;80.97;100881.25;4928082;28;20047;-73
2023/06/28 02:37:59;;;;;;;11.65;2.20;;;15.50;99.90;;;14.44;80.93;100891.63;4936305;28;20126;-73
2023/06/28 02:40:25;;;;;;;;;;;15.50;99.90;;;14.35;81.34;100887.75;4951703;28;20106;-72
2023/06/28 02:42:51;;;;;;;;;;;15.50;99.90;;;14.35;81.80;100901.00;4945122;28;19921;-72
2023/06/28 02:45:16;;;;;;;;;;;15.50;99.90;;;14.33;82.17;100894.94;4945965;28;19981;-73
2023/06/28 02:47:42;;;;;;;;;;;15.40;99.90;;;14.30;82.70;100896.94;4936408;28;19914;-71
2023/06/28 02:50:08;;;;;;;;;;;15.40;99.90;;;14.27;82.93;100910.34;4943529;28;19918;-72
2023/06/28 02:52:34;;;;;;;;;;;15.40;99.90;;;14.27;83.31;100897.94;4941348;28;19926;-72
2023/06/28 02:54:59;;;;;;;;;;;15.40;99.90;;;14.30;83.41;100896.94;4944840;28;19914;-72
2023/06/28 02:57:26;;;;;;;;;;;15.40;99.90;;;14.28;83.27;100899.66;4944429;28;20294;-73
2023/06/28 02:59:52;;;;;;;;;;;15.40;99.90;;;14.30;83.53;100897.78;4942551;28;19914;-72
2023/06/28 03:02:17;;;;;;;;;;;15.40;99.90;;;14.31;83.94;100890.66;4926645;28;19915;-73
2023/06/28 03:04:43;;;;;;;;;;;15.40;99.90;;;14.31;83.91;100893.31;4941700;28;19949;-73
2023/06/28 03:07:16;;;;;;;;;;;15.40;99.90;;;14.30;84.00;100887.19;4946477;28;20063;-73
2023/06/28 03:09:42;;;;;;;;;;;15.40;99.90;;;14.33;84.13;100888.78;4934725;28;20326;-72
2023/06/28 03:12:09;;;;;;;;;;;15.40;99.90;;;14.31;84.30;100888.03;4942660;28;19933;-72
2023/06/28 03:14:34;;;;;;;;;;;15.50;99.90;;;14.33;84.29;100886.13;4924299;28;19950;-72
2023/06/28 03:17:00;;;;;;;;;;;15.50;99.90;;;14.37;83.86;100887.66;4942872;28;20015;-73
2023/06/28 03:19:26;;;;;;;;;;;15.50;99.90;;;14.42;83.99;100898.81;4928159;28;19920;-73
2023/06/28 03:21:51;;;;;;;;;;;15.50;99.90;;;14.44;83.60;100894.28;4945175;28;20293;-72
2023/06/28 03:24:17;;;;;;;;;;;15.60;99.90;;;14.50;83.54;100898.38;4935407;28;19957;-73
2023/06/28 03:26:43;;;;;;;;;;;15.60;99.90;;;14.52;83.42;100901.78;4934725;28;19922;-72
2023/06/28 03:29:09;;;;;;;;;;;15.60;99.90;;;14.50;83.13;100888.63;4926711;28;20338;-73
2023/06/28 03:31:34;;;;;;;;;;;15.60;99.90;;;14.49;83.18;100897.53;4928497;28;19920;-73
2023/06/28 03:34:00;;;;;;;;;;;15.60;99.90;;;14.51;82.97;100900.06;4942721;28;19989;-74
2023/06/28 03:36:31;;;;;;;;;;;15.60;99.90;;;14.50;83.25;100896.56;4942802;28;20003;-72
2023/06/28 03:38:56;;;;;;;;;;;15.60;99.90;;;14.57;83.34;100905.03;4941484;28;20016;-72
2023/06/28 03:41:22;;;;;;;;;;;15.70;99.90;;;14.56;83.17;100900.69;4932028;28;19929;-73
2023/06/28 03:43:47;;;;;;;;;;;15.70;99.90;;;14.54;83.48;100903.41;4945655;28;20307;-72
2023/06/28 03:46:13;;;;;;;;;;;15.70;99.90;;;14.54;83.38;100903.41;4917654;28;19972;-72
2023/06/28 03:48:39;;;;;;;;;;;15.70;99.90;;;14.60;83.89;100906.63;4952054;28;19925;-73
2023/06/28 03:51:04;;;;;;;;;;;15.70;99.90;;;14.64;83.99;100906.34;4941713;28;19918;-73
2023/06/28 03:53:30;;;;;;;;;;;15.70;99.90;;;14.70;83.75;100921.03;4941624;28;19918;-72
2023/06/28 03:55:57;;;;;;;;;;;15.70;99.90;;;14.69;83.83;100916.69;4945061;28;20025;-72
2023/06/28 03:58:23;;;;;;;;;;;15.80;99.90;;;14.75;83.91;100918.94;4942451;28;19918;-72
2023/06/28 04:00:52;;;;;;;;;;;15.80;99.90;;;14.69;83.89;100919.34;4938500;28;19914;-73
2023/06/28 04:03:18;;;;;;;;;;;15.80;99.90;;;14.64;84.67;100922.25;4941524;28;19921;-73
2023/06/28 04:05:44;;;;;;;;;;;15.80;99.90;;;14.61;85.22;100919.81;4941931;28;19922;-72
2023/06/28 04:08:11;;;;;;;;;;;15.80;99.90;;;14.61;85.11;100922.47;4929876;28;19922;-73
2023/06/28 04:10:38;;;;;;;;;;;15.80;99.90;;;14.64;85.38;100921.41;4942161;28;19945;-72
2023/06/28 04:13:04;;;;;;;;;;;15.80;99.90;;;14.62;85.72;100923.28;4938084;28;20077;-72
2023/06/28 04:15:30;;;;;;;;;;;15.80;99.90;;;14.62;85.94;100925.94;4956255;28;19950;-72
2023/06/28 04:17:55;;;;;;;;;;;15.80;99.90;;;14.69;86.16;100932.59;4928401;28;19922;-72
2023/06/28 04:20:21;;;;;;;;;;;15.80;99.90;;;14.70;86.42;100936.94;4944222;28;19945;-72
2023/06/28 04:22:47;;;;;;;;;;;15.80;99.90;;;14.71;86.53;100936.03;4932861;28;19918;-74
2023/06/28 04:25:13;;;;;;;;;;;15.80;99.90;;;14.72;86.35;100935.91;4943989;28;19934;-71
2023/06/28 04:27:38;;;;;;;;;;;15.80;99.90;;;14.74;86.42;100933.16;4939350;28;19945;-73
2023/06/28 04:30:05;;;;;;;;;;;15.80;99.90;;;14.75;86.76;100929.56;4944039;28;19993;-72
2023/06/28 04:32:33;;;;;;;;;;;15.90;99.90;;;14.74;86.73;100938.47;4936806;28;19921;-72
2023/06/28 04:35:01;;;;;;;;;;;15.90;99.90;;;14.73;86.80;100942.09;4942914;28;19914;-72
2023/06/28 04:37:27;;;;;;;;;;;15.90;99.90;;;14.75;86.96;100940.16;4938849;28;20603;-72
2023/06/28 04:40:00;;;;;;;;;;;15.90;99.90;;;14.73;87.27;100942.94;4942126;28;19933;-72
2023/06/28 04:42:25;;;;;;;;;;;15.80;99.90;;;14.70;87.47;100953.69;4943071;28;20070;-72
2023/06/28 04:44:51;;;;;;;;;;;15.90;99.90;;;14.71;87.80;100950.13;4949630;28;19930;-72
2023/06/28 04:47:17;;;;;;;;;;;15.80;99.90;;;14.72;88.39;100949.16;4941730;28;19919;-72
2023/06/28 04:49:47;;;;;;;;;;;15.80;99.90;;;14.71;88.41;100938.66;4923350;28;19980;-72
2023/06/28 04:52:15;;;;;;;;;;;15.80;99.90;;;14.76;88.56;100941.88;4926229;28;19977;-73
2023/06/28 04:54:43;;;;;;;;;;;15.90;99.90;;;14.72;89.08;100943.84;4942468;28;20367;-73
2023/06/28 04:57:08;;;;;;;;;;;15.80;99.90;;;14.74;88.91;100946.41;4940882;28;19914;-73
2023/06/28 04:59:34;;;;;;;;;;;15.90;99.90;;;14.77;89.35;100948.88;4943721;28;19920;-72
2023/06/28 05:02:03;;;;;;;;;;;15.90;99.90;;;14.74;89.03;100943.78;4929571;28;21073;-72
2023/06/28 05:04:32;;;;;;;;;;;15.90;99.90;;;14.82;88.83;100944.16;4936369;28;20017;-72
2023/06/28 05:07:01;;;;;;;;;;;15.90;99.90;;;14.81;89.62;100939.78;4949212;28;20634;-71
2023/06/28 05:09:27;;;;;;;;;;;15.90;99.90;;;14.82;89.18;100946.81;4927556;28;19918;-73
2023/06/28 05:11:53;;;;;;;;;;;15.90;99.90;;;14.85;89.61;100951.06;4942129;28;19969;-73
2023/06/28 05:14:18;;;;;;;;;;;16.00;99.90;;;14.84;89.37;100952.88;4938516;28;19965;-73
2023/06/28 05:16:44;;;;;;;;;;;16.00;99.90;;;14.86;89.52;100953.63;4934265;28;19922;-72
2023/06/28 05:19:10;;;;;;;;;;;16.00;99.90;;;14.87;89.54;100954.47;4942055;28;20323;-72
2023/06/28 05:21:35;;;;;;;;;;;16.00;99.90;;;14.84;89.56;100960.84;4940214;28;20375;-73
2023/06/28 05:24:01;;;;;;;;;;;16.00;99.90;;;14.96;89.81;100964.50;4917396;28;19922;-72
2023/06/28 05:26:27;;;;;;;;;;;16.00;99.90;;;14.97;89.72;100961.78;4931118;28;19918;-72
2023/06/28 05:28:52;;;;;;;;;;;16.10;99.90;;;15.01;89.38;100970.41;4944181;28;19969;-73
2023/06/28 05:31:18;;;;;;;;;;;16.10;99.90;;;15.04;89.53;100967.56;4942190;28;19965;-72
2023/06/28 05:33:44;;;;;;;;;;;16.10;99.90;;;15.11;89.23;100958.28;4942393;28;19941;-72
2023/06/28 05:36:10;;;;;;;;;;;16.10;99.90;;;15.10;89.41;100955.72;4926357;28;19978;-72
2023/06/28 05:38:36;;;;;;;;;;;16.20;99.90;;;15.21;89.28;100963.03;4943397;28;19918;-72
2023/06/28 05:41:15;;;;;;;;;;;16.20;99.90;;;15.18;89.03;100958.72;4946738;28;19921;-72
2023/06/28 05:43:45;;;;;;;;;;;16.30;99.90;;;15.22;89.06;100968.22;4945266;28;19914;-73
2023/06/28 05:46:11;;;;;;;;;;;16.30;99.90;;;15.19;88.87;100968.41;4945649;28;19920;-72
2023/06/28 05:48:36;;;;;;;;;;;16.30;99.90;;;15.31;88.85;100969.44;4933521;28;19919;-72
2023/06/28 05:51:02;;;;;;;;;;;16.30;99.90;;;15.26;88.38;100969.72;4945597;28;19925;-72
2023/06/28 05:53:29;;;;;;;;;;;16.30;99.90;;;15.27;88.17;100970.56;4937764;28;19914;-73
2023/06/28 05:55:55;;;;;;;;;;;16.30;99.90;;;15.22;88.63;100975.31;4951285;28;19914;-72
2023/06/28 05:58:21;;;;;;;;;;;16.30;99.90;;;15.27;88.95;100983.84;4944116;28;20000;-73
2023/06/28 06:00:46;;;;;;;;;;;16.30;99.90;;;15.32;88.75;100976.47;4944695;28;20057;-72
2023/06/28 06:03:12;;;;;;;;;;;16.30;99.90;;;15.35;88.97;100976.25;4945211;28;19918;-71
2023/06/28 06:05:38;;;;;;;;;;;16.40;99.90;;;15.34;88.57;100975.41;4945461;28;19929;-72
2023/06/28 06:08:04;;;;;;;;;;;16.40;99.90;;;15.28;88.21;100977.59;4928788;28;19922;-72
2023/06/28 06:10:30;;;;;;;;;;;16.40;99.90;;;15.26;88.81;100976.84;4943604;28;19915;-73
2023/06/28 06:12:56;;;;;;;;;;;16.40;99.90;;;15.33;89.01;100984.34;4925105;28;19926;-72
2023/06/28 06:15:22;;;;;;;;;;;16.40;99.90;;;15.41;89.32;100978.53;4946399;28;19929;-72
2023/06/28 06:17:49;;;;;;;;;;;16.40;99.90;;;15.45;88.78;100981.84;4944855;28;20287;-73
2023/06/28 06:20:15;;;;;;;;;;;16.50;99.90;;;15.45;88.19;100990.66;4940292;28;19922;-72
2023/06/28 06:22:44;;;;;;;;;;;18.20;99.90;;;15.46;87.76;100988.84;4941804;28;19997;-72
2023/06/28 06:25:10;;;;;;;;;;;16.50;99.90;;;15.47;88.15;100979.97;4935800;28;19919;-72
2023/06/28 06:27:36;;;;;;;;;;;16.50;99.90;;;15.59;88.39;100995.97;4938815;28;20360;-72
2023/06/28 06:30:06;;;;;;;;;;;16.60;99.90;;;15.62;87.50;100996.72;4976287;23;19987;-73
2023/06/28 06:32:31;;;;;;;;;;;16.60;99.90;;;15.71;87.66;100996.13;4982174;28;19928;-73
2023/06/28 06:34:57;;;;;;;;;;;16.70;99.90;;;15.67;87.16;101000.75;4963267;28;19922;-72
2023/06/28 06:37:26;;;;;;;;;;;16.70;99.90;;;15.77;87.09;100999.28;4996053;28;19921;-72
2023/06/28 06:39:53;;;;;;;;;;;16.80;99.90;;;15.79;86.43;101002.69;4977569;28;20345;-72
2023/06/28 06:42:19;;;;;;;;;;;16.80;99.90;;;15.85;86.43;101003.22;4978219;28;19921;-73
2023/06/28 06:44:45;;;;;;;;;;;16.80;99.90;;;15.78;86.35;101008.94;4972397;28;19933;-72
2023/06/28 06:47:10;;;;;;;;;;;16.80;99.90;;;15.84;86.39;101006.84;4974564;28;19925;-73
2023/06/28 06:49:36;;;;;;;;;;;16.80;99.90;;;15.86;86.15;101020.88;4976364;28;19967;-72
2023/06/28 06:52:02;;;;;;;;;;;16.90;99.90;;;15.83;86.22;101015.75;4970500;28;19944;-72
2023/06/28 06:54:29;;;;;;;;;;;16.90;99.90;;;15.90;86.07;101017.06;4958132;28;19914;-72
2023/06/28 06:56:56;;;;;;;;;;;16.90;99.90;;;15.88;86.10;101018.97;4963601;28;20012;-72
2023/06/28 06:59:23;;;;;;;;;;;16.90;99.90;;;15.89;85.90;101018.00;4964635;28;20378;-72
2023/06/28 07:02:00;;;;;;;;;;;16.90;99.90;;;15.90;85.85;101023.22;4973180;28;19929;-74
2023/06/28 07:04:25;;;;;;;;;;;16.90;99.90;;;15.96;86.10;101024.63;4965113;28;19922;-73
2023/06/28 07:06:51;;;;;;;;;;;17.00;99.90;;;16.01;86.34;101032.31;4974259;28;20843;-73
2023/06/28 07:09:18;;;;;;;;;;;17.00;99.90;;;16.05;85.70;101033.84;4972774;28;20701;-73
2023/06/28 08:56:08;;;;;;;;;;;19.20;99.90;;;18.49;74.76;101120.81;4979511;28;19916;-72
2023/06/28 08:58:33;;;;;;;;;;;19.30;99.90;;;18.67;74.18;101133.75;4985606;28;20517;-71
2023/06/28 09:00:59;;;;;;;;;;;19.40;99.90;;;18.85;74.19;101137.72;4981735;28;19916;-73
2023/06/28 09:03:25;;;;;;;;;;;19.50;99.90;;;19.09;74.37;101137.69;4979051;28;20350;-71
2023/06/28 09:05:54;;;;;;;;;;;19.70;99.90;;;19.30;72.78;101137.88;4978972;28;19918;-71
2023/06/28 09:08:20;;;;;;;;;;;19.90;99.90;;;19.31;71.96;101139.59;4983189;28;19917;-73
2023/06/28 09:10:47;;;;;;;;;;;20.00;99.90;;;19.27;72.10;101136.28;4981397;28;19914;-72
2023/06/28 09:13:19;;;;;;;;;;;20.10;99.90;;;19.42;72.03;101141.44;4980719;28;19927;-72
2023/06/28 09:15:46;;;;;;;;;;;20.20;99.90;;;19.53;72.34;101141.44;4979801;28;19956;-72
2023/06/28 09:18:12;;;;;;;;;;;20.30;99.90;;;19.40;71.36;101143.38;4980124;28;20374;-72
2023/06/28 09:20:48;;;;;;;;;;;20.30;99.90;;;19.39;71.05;101134.47;4982974;28;20004;-72
2023/06/28 09:23:24;;;;;;;;;;;20.30;99.90;;;19.55;71.96;101136.00;4981539;28;19928;-71
2023/06/28 09:25:50;;;;;;;;;;;20.40;99.90;;;19.72;70.97;101148.03;4966649;28;20267;-73
2023/06/28 09:28:19;;;;;;;;;;;20.50;99.90;;;19.93;70.08;101150.84;4963021;28;19913;-72
2023/06/28 09:30:54;;;;;;;;;;;20.60;99.90;;;20.10;69.62;101146.81;4981777;28;19959;-72
2023/06/28 09:33:20;;;;;;;;;;;20.70;99.90;;;20.33;69.52;101155.69;4984042;28;19918;-72
2023/06/28 09:35:46;;;;;;;;;;;20.90;99.90;;;20.44;68.42;101151.16;4982043;28;19924;-72
2023/06/28 09:38:12;;;;;;;;;;;21.00;99.90;;;20.43;67.88;101148.59;4979613;28;20303;-71
2023/06/28 09:40:40;;;;;;;;;;;21.10;99.90;;;20.98;68.80;101153.94;4980084;28;20504;-72
2023/06/28 09:43:13;;;;;;;;;;;21.30;99.90;;;21.39;66.17;101152.25;4978780;28;19964;-71
2023/06/28 09:45:41;;;;;;;;;;;21.70;99.90;;;21.69;65.02;101156.81;4985065;28;20458;-72
2023/06/28 09:48:07;;;;;;;;;;;22.00;99.90;;;21.78;65.04;101158.69;4981727;28;20517;-75
2023/06/28 09:50:49;;;;;;;;;;;22.20;99.90;;;21.94;64.53;101157.34;4981001;28;19913;-71
2023/06/28 09:53:19;;;;;;;;;;;22.40;99.90;;;22.06;63.59;101175.88;4976561;28;20020;-71
2023/06/28 09:55:47;;;;;;;;;;;22.50;99.90;;;22.04;63.33;101168.97;4984537;28;19991;-71
2023/06/28 09:58:20;;;;;;;;;;;22.60;99.90;;;22.19;62.85;101178.34;4983160;28;19918;-72
2023/06/28 10:00:50;;;;;;;;;;;22.70;99.90;;;22.42;62.65;101179.00;4980739;28;20004;-72
2023/06/28 10:03:27;;;;;;;;;;;22.90;99.90;;;22.50;63.19;101181.84;4978591;28;20021;-73
2023/06/28 10:05:58;;;;;;;;;;;23.00;99.90;;;22.72;61.92;101196.84;4977208;28;19940;-72
2023/06/28 10:08:24;;;;;;;;;;;23.20;99.90;;;22.46;61.08;101180.44;4981631;28;19967;-73
2023/06/28 10:10:52;;;;;;;;;;;23.20;99.90;;;22.62;61.49;101190.63;4965674;28;19918;-71
2023/06/28 10:13:22;;;;;;;;;;;23.20;99.90;;;22.61;60.76;101191.59;4980316;28;19918;-72
2023/06/28 10:16:07;;;;;;;;;;;23.20;99.90;;;22.56;60.79;101193.84;4978468;28;20327;-72
2023/06/28 10:18:36;;;;;;;;;;;23.20;99.90;;;22.67;61.64;101190.19;4983639;28;19965;-71
2023/06/28 10:21:07;;;;;;;;;;;23.30;99.90;;;22.38;61.39;101190.16;4982139;28;19925;-71
2023/06/28 10:23:38;;;;;;;;;;;23.20;99.90;;;21.98;62.37;101188.28;4983968;28;19918;-72
2023/06/28 10:26:08;;;;;;;;;;;23.00;99.90;;;21.38;62.42;101180.88;4981809;28;20421;-72
2023/06/28 10:28:35;;;;;;;;;;;22.70;99.90;;;21.10;63.58;101188.56;4979031;28;20370;-72
2023/06/28 10:31:04;;;;;;;;;;;22.40;99.90;;;21.13;64.50;101186.59;4987283;28;19925;-73
2023/06/28 10:33:36;;;;;;;;;;;22.20;99.90;;;21.09;64.00;101184.16;4985550;28;20080;-71
2023/06/28 10:36:04;;;;;;;;;;;22.10;99.90;;;21.04;64.73;101185.53;4968925;28;19972;-73
2023/06/28 10:38:38;;;;;;;;;;;22.00;99.90;;;20.91;64.55;101185.72;4984747;28;19967;-73
2023/06/28 10:41:16;;;;;;;;;;;21.90;99.90;;;20.89;64.36;101187.66;4983920;28;20310;-73
2023/06/28 10:43:45;;;;;;;;;;;21.80;99.90;;;20.85;64.05;101189.72;4986967;28;19973;-72
2023/06/28 10:46:28;;;;;;;;;;;21.80;99.90;;;21.24;64.52;101197.25;4988310;28;19971;-73
2023/06/28 10:48:54;;;;;;;;;;;21.80;99.90;;;21.75;63.25;101204.53;4980892;28;20414;-73
2023/06/28 10:51:29;;;;;;;;;;;22.20;99.90;;;22.06;62.20;101215.25;4980251;28;19913;-72
2023/06/28 10:54:32;;;;;;;;;;;22.40;99.90;;;22.35;63.73;101214.56;4978236;28;19909;-71
2023/06/28 10:57:10;;;;;;;;;;;22.70;99.90;;;22.57;61.32;101217.03;4948847;28;19914;-73
2023/06/28 10:59:42;;;;;;;;;;;23.00;99.90;;;22.67;60.41;101220.56;4954040;28;20361;-71
2023/06/28 11:02:10;;;;;;;;;;;23.20;99.90;;;22.61;59.25;101214.91;4950259;28;19910;-73
2023/06/28 11:04:57;;;;;;;;;;;23.30;99.90;;;22.75;59.71;101227.09;4954416;28;20012;-72
2023/06/28 11:07:27;;;;;;;;;;;23.30;99.90;;;22.56;59.67;101215.31;4954554;28;19910;-72
2023/06/28 11:10:14;;;;;;;;;;;23.30;99.90;;;22.67;60.10;101217.88;4950102;28;19944;-72
2023/06/28 11:12:40;;;;;;;;;;;23.30;99.90;;;22.75;59.71;101217.19;4978837;23;20264;-77
2023/06/28 11:15:07;;;;;;;;;;;23.40;99.90;;;23.12;59.41;101225.47;4962578;28;19925;-77
2023/06/28 11:17:33;;;;;;;;;;;23.60;99.90;;;23.42;57.65;101225.47;4949843;28;19982;-77
2023/06/28 11:20:11;;;;;;;;;;;23.80;99.90;;;23.45;57.38;101225.16;4949951;29;19915;-77
2023/06/28 11:22:51;;;;;;;;;;;23.90;99.90;;;23.64;58.82;101218.91;4965373;28;20001;-77
2023/06/28 11:25:19;;;;;;;;;;;24.10;99.90;;;23.66;56.97;101230.38;4934844;29;19922;-77
2023/06/28 11:27:45;;;;;;;;;;;24.20;99.90;;;23.50;56.19;101226.44;4951483;29;19965;-76
2023/06/28 11:30:11;;;;;;;;;;;24.20;99.90;;;23.59;57.10;101232.78;4950510;28;19979;-76
2023/06/28 11:32:37;;;;;;;;;;;24.30;99.90;;;23.77;56.54;101238.28;4950533;28;20417;-76
2023/06/28 11:35:05;;;;;;;;;;;24.30;99.90;;;24.01;55.06;101239.66;4950586;29;20383;-76
2023/06/28 11:37:32;;;;;;;;;;;24.50;99.90;;;24.02;54.99;101241.34;4951575;28;19914;-77
2023/06/28 11:39:58;;;;;;;;;;;24.60;99.90;;;23.75;56.75;101229.50;4933683;29;19933;-76
2023/06/28 11:42:24;;;;;;;;;;;24.50;99.90;;;23.71;56.90;101231.66;4950053;29;19982;-76
2023/06/28 11:44:51;;;;;;;;;;;24.50;99.90;;;23.95;56.19;101235.69;4950691;29;19963;-76
2023/06/28 11:47:18;;;;;;;;;;;24.60;99.90;;;23.85;55.54;101235.72;4950283;29;19919;-77
2023/06/28 11:49:45;;;;;;;;;;;24.60;99.90;;;23.54;56.01;101226.97;4949313;29;19941;-77
2023/06/28 11:52:11;;;;;;;;;;;24.50;99.90;;;23.78;57.20;101237.31;4949512;29;19914;-77
2023/06/28 11:54:37;;;;;;;;;;;24.40;99.90;;;23.87;56.66;101238.28;4950072;29;20276;-76
2023/06/28 11:57:03;;;;;;;;;;;24.50;99.90;;;23.52;55.69;101232.53;4949205;28;19915;-76
2023/06/28 11:59:31;;;;;;;;;;;24.40;99.90;;;23.55;56.43;101229.53;4950991;29;19933;-77
2023/06/28 12:02:01;;;;;;;;;;;24.40;99.90;;;23.70;57.45;101234.47;4949459;28;19910;-76
2023/06/28 12:04:27;;;;;;;;;;;24.40;99.90;;;23.48;56.43;101225.72;4950756;29;20368;-76
2023/06/28 12:06:53;;;;;;;;;;;24.30;99.90;;;23.27;57.46;101233.09;4933792;29;19911;-77
2023/06/28 12:09:29;;;;;;;;;;;24.20;99.90;;;23.24;56.55;101223.50;4950719;29;19910;-77
2023/06/28 12:12:01;;;;;;;;;;;24.10;99.90;;;22.97;56.63;101224.16;4948848;28;19922;-76
2023/06/28 12:14:27;;;;;;;;;;;24.00;99.90;;;23.34;57.36;101223.47;4950606;29;20340;-77
2023/06/28 12:16:54;;;;;;;;;;;24.00;99.90;;;23.38;57.00;101224.03;4950091;28;19950;-77
2023/06/28 12:19:24;;;;;;;;;;;24.10;99.90;;;23.22;57.97;101227.28;4942337;29;19910;-76
2023/06/28 12:21:52;;;;;;;;;;;24.10;99.90;;;23.05;56.87;101224.34;4950428;29;20002;-77
2023/06/28 12:24:21;;;;;;;;;;;24.00;99.90;;;23.37;57.30;101222.34;4948730;29;20307;-77
2023/06/28 12:26:59;;;;;;;;;;;24.10;99.90;;;23.92;57.68;101233.31;4949961;29;19966;-77
2023/06/28 12:29:27;;;;;;;;;;;24.30;99.90;;;23.85;56.24;101227.66;4925697;29;20453;-77
2023/06/28 12:31:54;;;;;;;;;;;24.40;99.90;;;23.61;55.88;101229.97;4949218;28;19918;-77
2023/06/28 12:34:24;;;;;;;;;;;24.40;99.90;;;23.51;57.30;101220.06;4949468;29;19925;-76
2023/06/28 12:36:55;;;;;;;;;;;24.30;99.90;;;23.55;55.77;101229.53;4949745;29;19914;-77
2023/06/28 12:39:25;;;;;;;;;;;24.30;99.90;;;23.37;55.95;101238.44;4948545;29;19910;-77
2023/06/28 12:42:02;;;;;;;;;;;24.20;99.90;;;23.22;56.39;101229.97;4949009;28;19922;-77